createdAt,value
2018-07-20T05:39:47.944Z,19.50
2018-07-20T05:42:16.228Z,19.70
2018-07-20T05:44:44.504Z,20.00
2018-07-20T05:47:12.805Z,20.30
2018-07-20T05:49:41.076Z,20.40
2018-07-20T05:52:09.845Z,20.60
2018-07-20T05:54:38.112Z,20.80
2018-07-20T05:57:06.376Z,20.90
2018-07-20T05:59:34.668Z,21.00
2018-07-20T06:02:02.933Z,21.10
2018-07-20T06:04:31.228Z,21.10
2018-07-20T06:06:59.501Z,21.10
2018-07-20T06:09:27.819Z,21.10
2018-07-20T06:11:56.085Z,21.10
2018-07-20T06:14:24.358Z,21.10
2018-07-20T06:16:52.652Z,21.10
2018-07-20T06:19:20.911Z,21.20
2018-07-20T06:21:49.209Z,21.10
2018-07-20T06:24:17.465Z,21.10
2018-07-20T06:26:45.749Z,21.20
2018-07-20T06:29:14.043Z,20.80
2018-07-20T06:31:42.369Z,20.80
2018-07-20T06:34:10.642Z,20.80
2018-07-20T06:36:38.134Z,20.80
2018-07-20T06:39:06.425Z,20.90
2018-07-20T06:41:34.683Z,20.70
2018-07-20T06:44:02.968Z,20.70
2018-07-20T06:46:31.254Z,20.60
2018-07-20T06:48:59.540Z,20.60
2018-07-20T06:51:27.797Z,20.50
2018-07-20T06:53:56.104Z,20.50
2018-07-20T06:56:24.408Z,20.90
2018-07-20T06:58:52.697Z,20.80
2018-07-20T07:01:20.991Z,20.80
2018-07-20T07:03:49.275Z,20.70
2018-07-20T07:06:17.584Z,20.80
2018-07-20T07:08:45.844Z,20.80
2018-07-20T07:11:14.170Z,21.10
2018-07-20T07:13:42.461Z,21.30
2018-07-20T07:16:10.754Z,21.40
2018-07-20T07:18:39.032Z,21.30
2018-07-20T07:21:07.320Z,21.30
2018-07-20T07:23:35.656Z,21.30
2018-07-20T07:26:03.900Z,21.40
2018-07-20T07:28:32.151Z,21.50
2018-07-20T07:31:00.415Z,21.50
2018-07-20T07:33:28.703Z,21.60
2018-07-20T07:35:57.119Z,21.80
2018-07-20T07:38:25.342Z,21.80
2018-07-20T07:40:53.612Z,22.10
2018-07-20T07:43:21.889Z,22.20
2018-07-20T07:45:50.180Z,22.40
2018-07-20T07:48:18.446Z,22.30
2018-07-20T07:50:46.741Z,22.60
2018-07-20T07:53:14.998Z,22.60
2018-07-20T07:55:43.280Z,22.60
2018-07-20T07:58:11.572Z,22.80
2018-07-20T08:00:39.825Z,22.90
2018-07-20T08:03:08.089Z,22.90
2018-07-20T08:05:36.371Z,23.00
2018-07-20T08:08:04.663Z,23.00
2018-07-20T08:10:32.928Z,23.30
2018-07-20T08:13:01.179Z,23.20
2018-07-20T08:15:29.468Z,23.20
2018-07-20T08:17:57.730Z,23.40
2018-07-20T08:20:26.036Z,23.50
2018-07-20T08:22:54.363Z,23.60
2018-07-20T08:25:22.603Z,23.80
2018-07-20T08:27:50.896Z,23.80
2018-07-20T08:30:19.160Z,23.70
2018-07-20T08:32:47.440Z,23.90
2018-07-20T08:35:15.727Z,23.90
2018-07-20T08:37:44.021Z,23.90
2018-07-20T08:40:12.285Z,23.90
2018-07-20T08:42:39.800Z,23.90
2018-07-20T08:45:08.065Z,24.00
2018-07-20T08:47:36.347Z,24.20
2018-07-20T08:50:04.604Z,24.40
2018-07-20T08:52:32.891Z,24.40
2018-07-20T08:55:01.157Z,24.50
2018-07-20T08:57:29.444Z,24.50
2018-07-20T08:59:57.743Z,24.60
2018-07-20T09:02:26.013Z,24.70
2018-07-20T09:04:54.268Z,24.60
2018-07-20T09:07:22.560Z,24.70
2018-07-20T09:09:50.839Z,24.80
2018-07-20T09:12:19.105Z,24.70
2018-07-20T09:14:47.411Z,24.70
2018-07-20T09:17:15.681Z,24.90
2018-07-20T09:19:43.199Z,24.80
2018-07-20T09:22:11.464Z,25.00
2018-07-20T09:24:40.760Z,25.10
2018-07-20T09:27:09.026Z,25.20
2018-07-20T09:32:30.252Z,25.30
2018-07-20T09:35:01.587Z,25.90
2018-07-20T09:37:29.883Z,26.10
2018-07-20T09:39:58.149Z,26.10
2018-07-20T09:42:26.433Z,26.00
2018-07-20T09:44:53.939Z,26.00
2018-07-20T09:47:22.209Z,26.30
2018-07-20T09:49:50.506Z,26.30
2018-07-20T09:52:18.784Z,26.20
2018-07-20T09:54:50.723Z,26.30
2018-07-20T09:57:18.252Z,26.30
2018-07-20T09:59:46.551Z,26.50
2018-07-20T10:02:14.785Z,26.50
2018-07-20T10:04:43.076Z,26.40
2018-07-20T10:07:11.329Z,26.50
2018-07-20T10:09:39.613Z,26.70
2018-07-20T10:12:07.863Z,26.80
2018-07-20T10:14:36.146Z,27.00
2018-07-20T10:17:04.397Z,27.30
2018-07-20T10:19:32.683Z,27.20
2018-07-20T10:22:00.929Z,27.20
2018-07-20T10:24:29.208Z,27.40
2018-07-20T10:26:56.700Z,27.30
2018-07-20T10:29:24.977Z,27.40
2018-07-20T10:31:53.231Z,27.30
2018-07-20T10:34:21.518Z,27.50
2018-07-20T10:36:49.808Z,27.50
2018-07-20T10:39:18.156Z,27.60
2018-07-20T10:41:46.430Z,27.70
2018-07-20T10:44:14.721Z,27.90
2018-07-20T10:46:42.992Z,27.80
2018-07-20T10:49:11.251Z,27.90
2018-07-20T10:51:39.537Z,27.80
2018-07-20T10:54:08.720Z,27.90
2018-07-20T10:56:37.032Z,28.10
2018-07-20T10:59:05.295Z,28.10
2018-07-20T11:01:33.620Z,28.20
2018-07-20T11:04:01.856Z,28.30
2018-07-20T11:06:30.113Z,28.40
2018-07-20T11:09:08.760Z,28.40
2018-07-20T11:11:37.065Z,28.50
2018-07-20T11:14:05.341Z,28.60
2018-07-20T11:16:33.598Z,28.60
2018-07-20T11:19:01.120Z,28.50
2018-07-20T11:21:29.380Z,28.50
2018-07-20T11:23:57.675Z,28.40
2018-07-20T11:26:25.952Z,28.50
2018-07-20T11:28:54.241Z,28.60
2018-07-20T11:31:22.524Z,28.70
2018-07-20T11:33:50.012Z,28.60
2018-07-20T11:36:18.309Z,28.40
2018-07-20T11:38:46.599Z,28.30
2018-07-20T11:41:14.871Z,28.40
2018-07-20T11:43:43.145Z,28.50
2018-07-20T11:46:11.421Z,28.70
2018-07-20T11:48:39.668Z,28.70
2018-07-20T11:51:07.956Z,29.00
2018-07-20T11:53:36.210Z,28.90
2018-07-20T11:56:04.537Z,28.70
2018-07-20T11:58:32.749Z,28.90
2018-07-20T12:01:01.044Z,28.80
2018-07-20T12:03:29.311Z,28.90
2018-07-20T12:05:57.566Z,29.00
2018-07-20T12:08:25.848Z,29.10
2018-07-20T12:10:54.096Z,29.10
2018-07-20T12:13:22.389Z,29.10
2018-07-20T12:15:50.636Z,29.10
2018-07-20T12:18:18.928Z,29.10
2018-07-20T12:20:47.189Z,29.20
2018-07-20T12:23:15.444Z,29.10
2018-07-20T12:25:42.945Z,29.00
2018-07-20T12:28:11.236Z,29.10
2018-07-20T12:30:39.501Z,29.00
2018-07-20T12:33:07.761Z,29.10
2018-07-20T12:35:36.048Z,29.10
2018-07-20T12:38:04.313Z,29.20
2018-07-20T12:40:32.564Z,29.30
2018-07-20T12:43:00.853Z,29.40
2018-07-20T12:45:29.144Z,29.50
2018-07-20T12:47:57.437Z,29.60
2018-07-20T12:50:25.735Z,29.60
2018-07-20T12:52:53.989Z,29.70
2018-07-20T12:55:22.235Z,29.80
2018-07-20T12:57:50.520Z,30.10
2018-07-20T13:00:19.748Z,30.00
2018-07-20T13:03:01.517Z,30.00
2018-07-20T13:05:29.777Z,29.80
2018-07-20T13:07:58.052Z,29.80
2018-07-20T13:10:26.304Z,29.70
2018-07-20T13:12:54.580Z,29.80
2018-07-20T13:15:22.856Z,30.00
2018-07-20T13:17:51.166Z,30.10
2018-07-20T13:20:19.433Z,30.10
2018-07-20T13:22:47.723Z,30.10
2018-07-20T13:25:15.984Z,30.10
